createdAt,value
2018-07-28T00:02:22.560Z,56.35
2018-07-28T00:04:51.247Z,56.13
2018-07-28T00:07:19.934Z,56.22
2018-07-28T00:09:48.617Z,56.82
2018-07-28T00:12:17.309Z,56.95
2018-07-28T00:14:45.903Z,56.49
2018-07-28T00:17:14.482Z,56.59
2018-07-28T00:19:43.763Z,56.72
2018-07-28T00:22:12.332Z,56.78
2018-07-28T00:24:40.926Z,56.93
2018-07-28T00:27:09.558Z,56.54
2018-07-28T00:29:38.199Z,56.69
2018-07-28T00:32:07.012Z,56.75
2018-07-28T00:34:35.775Z,56.61
2018-07-28T00:37:04.461Z,56.55
2018-07-28T00:39:32.986Z,56.15
2018-07-28T00:42:01.731Z,56.00
2018-07-28T00:44:31.091Z,56.33
2018-07-28T00:46:59.723Z,55.96
2018-07-28T00:49:28.396Z,56.45
2018-07-28T00:51:57.080Z,56.45
2018-07-28T00:54:25.767Z,56.40
2018-07-28T00:56:54.452Z,55.98
2018-07-28T00:59:23.752Z,56.08
2018-07-28T01:01:52.363Z,56.37
2018-07-28T01:04:20.947Z,56.30
2018-07-28T01:06:49.586Z,56.75
2018-07-28T01:09:18.187Z,56.08
2018-07-28T01:11:46.694Z,56.29
2018-07-28T01:14:15.291Z,56.47
2018-07-28T01:16:43.934Z,56.44
2018-07-28T01:19:12.519Z,57.06
2018-07-28T01:21:41.018Z,57.31
2018-07-28T01:24:09.892Z,56.97
2018-07-28T01:26:38.574Z,57.31
2018-07-28T01:29:22.731Z,57.13
2018-07-28T01:31:51.408Z,56.60
2018-07-28T01:34:20.018Z,57.21
2018-07-28T01:36:48.591Z,57.34
2018-07-28T01:39:17.975Z,57.38
2018-07-28T01:41:46.532Z,57.73
2018-07-28T01:44:15.140Z,57.52
2018-07-28T01:46:43.779Z,57.20
2018-07-28T01:49:12.411Z,57.87
2018-07-28T01:51:41.542Z,57.69
2018-07-28T01:54:10.139Z,58.01
2018-07-28T01:56:38.772Z,57.59
2018-07-28T01:59:07.303Z,57.78
2018-07-28T02:01:35.939Z,58.05
2018-07-28T02:04:05.238Z,58.62
2018-07-28T02:06:33.821Z,57.94
2018-07-28T02:09:02.506Z,58.31
2018-07-28T02:11:31.000Z,58.31
2018-07-28T02:13:59.593Z,57.92
2018-07-28T02:16:28.258Z,57.72
2018-07-28T02:18:56.786Z,57.82
2018-07-28T02:21:25.421Z,57.67
2018-07-28T02:23:54.106Z,57.39
2018-07-28T02:26:22.790Z,58.01
2018-07-28T02:28:51.447Z,57.92
2018-07-28T02:31:20.064Z,58.17
2018-07-28T02:33:48.563Z,57.92
2018-07-28T02:36:17.175Z,57.52
2018-07-28T02:38:45.811Z,58.14
2018-07-28T02:41:14.446Z,57.72
2018-07-28T02:43:43.077Z,58.20
2018-07-28T02:46:11.707Z,57.64
2018-07-28T02:48:40.447Z,57.72
2018-07-28T02:51:09.034Z,57.07
2018-07-28T02:53:41.766Z,57.37
2018-07-28T02:56:10.496Z,57.41
2018-07-28T02:58:39.128Z,58.47
2018-07-28T03:01:08.461Z,58.01
2018-07-28T03:03:37.474Z,57.75
2018-07-28T03:06:06.047Z,58.25
2018-07-28T03:08:34.706Z,58.54
2018-07-28T03:11:03.537Z,59.34
2018-07-28T03:13:32.022Z,58.01
2018-07-28T03:16:00.695Z,58.12
2018-07-28T03:18:29.332Z,58.45
2018-07-28T03:20:57.965Z,58.17
2018-07-28T03:23:26.654Z,57.84
2018-07-28T03:25:55.848Z,58.21
2018-07-28T03:28:24.412Z,57.90
2018-07-28T03:30:53.012Z,57.86
2018-07-28T03:33:21.649Z,58.60
2018-07-28T03:35:50.281Z,57.61
2018-07-28T03:38:19.785Z,58.01
2018-07-28T03:40:48.471Z,57.50
2018-07-28T03:43:16.974Z,57.48
2018-07-28T03:45:45.522Z,57.97
2018-07-28T03:48:14.070Z,58.38
2018-07-28T03:50:42.596Z,57.44
2018-07-28T03:53:11.255Z,58.09
2018-07-28T03:55:40.016Z,57.43
2018-07-28T03:58:08.565Z,58.35
2018-07-28T04:00:37.087Z,58.68
2018-07-28T04:03:06.024Z,58.67
2018-07-28T04:05:34.608Z,57.79
2018-07-28T04:08:03.127Z,58.79
2018-07-28T04:10:31.702Z,58.63
2018-07-28T04:13:00.252Z,58.69
2018-07-28T04:15:28.766Z,58.58
2018-07-28T04:17:57.421Z,59.15
2018-07-28T04:20:27.179Z,59.42
2018-07-28T04:22:56.221Z,59.32
2018-07-28T04:25:25.156Z,59.39
2018-07-28T04:27:53.901Z,59.81
2018-07-28T04:30:22.484Z,61.57
2018-07-28T04:32:51.169Z,59.98
2018-07-28T04:35:19.751Z,60.36
2018-07-28T04:37:48.442Z,60.90
2018-07-28T04:40:16.966Z,61.04
2018-07-28T04:42:46.319Z,62.58
2018-07-28T04:45:14.901Z,61.55
2018-07-28T04:47:43.394Z,61.24
2018-07-28T04:50:12.170Z,61.72
2018-07-28T04:52:40.804Z,61.51
2018-07-28T04:55:09.439Z,61.62
2018-07-28T04:57:37.963Z,61.71
2018-07-28T05:00:07.014Z,61.32
2018-07-28T05:02:35.642Z,62.08
2018-07-28T05:05:04.589Z,62.23
2018-07-28T05:07:33.395Z,60.58
2018-07-28T05:10:01.859Z,61.21
2018-07-28T05:12:30.442Z,61.36
2018-07-28T05:14:59.024Z,60.88
2018-07-28T05:17:27.785Z,61.77
2018-07-28T05:19:56.306Z,61.44
2018-07-28T05:22:24.907Z,60.27
2018-07-28T05:24:53.499Z,61.18
2018-07-28T05:27:22.454Z,60.90
2018-07-28T05:29:51.095Z,59.96
2018-07-28T05:32:19.766Z,60.20
2018-07-28T05:34:48.349Z,60.03
2018-07-28T05:37:16.975Z,60.21
2018-07-28T05:39:45.574Z,60.39
2018-07-28T05:42:14.193Z,59.97
2018-07-28T05:44:42.739Z,59.12
2018-07-28T05:47:11.334Z,59.33
2018-07-28T05:49:39.818Z,59.44
2018-07-28T05:52:08.507Z,59.46
2018-07-28T05:54:37.171Z,59.17
2018-07-28T05:57:05.690Z,58.63
2018-07-28T05:59:34.261Z,58.83
2018-07-28T06:02:03.338Z,58.72
2018-07-28T06:04:32.015Z,58.24
2018-07-28T06:07:00.597Z,57.99
2018-07-28T06:09:29.284Z,58.35
2018-07-28T06:11:58.284Z,58.30
2018-07-28T06:14:27.065Z,57.60
2018-07-28T06:16:55.662Z,58.30
2018-07-28T06:19:24.332Z,57.75
2018-07-28T06:21:52.956Z,57.32
2018-07-28T06:24:21.601Z,57.69
2018-07-28T06:26:50.387Z,56.85
2018-07-28T06:29:18.970Z,56.71
2018-07-28T06:31:47.755Z,56.42
2018-07-28T06:34:16.545Z,56.68
2018-07-28T06:36:45.163Z,56.16
2018-07-28T06:39:14.837Z,56.18
2018-07-28T06:41:43.422Z,55.53
2018-07-28T06:44:12.012Z,56.03
2018-07-28T06:46:40.650Z,55.64
2018-07-28T06:49:10.139Z,54.96
2018-07-28T06:51:38.878Z,54.54
2018-07-28T06:54:07.730Z,55.10
2018-07-28T06:56:36.350Z,54.45
2018-07-28T06:59:05.141Z,55.13
2018-07-28T07:01:33.827Z,54.81
2018-07-28T07:04:02.353Z,54.65
2018-07-28T07:06:30.919Z,54.13
2018-07-28T07:08:59.571Z,54.73
2018-07-28T07:11:28.563Z,54.09
2018-07-28T07:13:57.215Z,53.61
2018-07-28T07:16:25.930Z,54.29
2018-07-28T07:18:54.494Z,53.52
2018-07-28T07:21:23.039Z,53.47
2018-07-28T07:23:51.634Z,53.23
2018-07-28T07:26:20.267Z,51.74
2018-07-28T07:28:48.865Z,52.59
2018-07-28T07:31:17.535Z,53.23
2018-07-28T07:33:46.220Z,53.00
2018-07-28T07:36:15.065Z,52.70
2018-07-28T07:38:43.663Z,52.36
2018-07-28T07:41:12.380Z,52.74
2018-07-28T07:43:40.888Z,52.03
2018-07-28T07:46:09.526Z,51.60
2018-07-28T07:48:38.482Z,51.71
2018-07-28T07:51:07.120Z,51.51
2018-07-28T07:53:35.657Z,51.00
2018-07-28T07:56:04.286Z,50.27
2018-07-28T07:58:33.026Z,49.49
2018-07-28T08:01:01.594Z,49.76
2018-07-28T08:03:30.241Z,50.00
2018-07-28T08:05:58.891Z,48.91
2018-07-28T08:08:27.478Z,49.24
2018-07-28T08:10:56.243Z,48.82
2018-07-28T08:13:24.931Z,49.40
2018-07-28T08:15:53.579Z,48.51
2018-07-28T08:18:22.238Z,48.71
2018-07-28T08:20:51.866Z,47.87
2018-07-28T08:23:20.387Z,48.08
2018-07-28T08:25:49.229Z,48.23
2018-07-28T08:28:17.894Z,47.91
2018-07-28T08:30:46.434Z,46.96
2018-07-28T08:33:15.033Z,46.16
2018-07-28T08:35:43.726Z,46.73
2018-07-28T08:38:12.345Z,46.17
2018-07-28T08:40:40.982Z,44.99
2018-07-28T08:43:09.620Z,44.81
2018-07-28T08:45:38.196Z,45.01
2018-07-28T08:48:07.023Z,43.81
2018-07-28T08:50:35.627Z,44.40
2018-07-28T08:53:04.354Z,44.59
2018-07-28T08:55:32.886Z,44.31
2018-07-28T08:58:01.479Z,44.74
2018-07-28T09:00:30.563Z,43.62
2018-07-28T09:02:59.198Z,44.09
2018-07-28T09:05:27.854Z,43.31
2018-07-28T09:07:56.467Z,43.81
2018-07-28T09:10:25.152Z,44.04
2018-07-28T09:12:53.696Z,43.90
2018-07-28T09:15:22.318Z,43.69
2018-07-28T09:17:51.503Z,43.46
2018-07-28T09:20:20.808Z,42.60
2018-07-28T09:22:49.479Z,41.52
2018-07-28T09:25:18.186Z,42.67
2018-07-28T09:27:47.486Z,42.12
2018-07-28T09:30:16.113Z,42.30
2018-07-28T09:32:44.752Z,42.58
2018-07-28T09:35:14.054Z,41.90
2018-07-28T09:37:42.935Z,42.22
2018-07-28T09:40:11.494Z,42.12
2018-07-28T09:42:40.110Z,41.28
2018-07-28T09:45:08.780Z,41.25
2018-07-28T09:47:37.378Z,40.91
2018-07-28T09:50:06.270Z,40.21
2018-07-28T09:52:34.993Z,40.47
2018-07-28T09:55:03.612Z,41.09
2018-07-28T09:57:32.171Z,41.11
2018-07-28T10:00:00.835Z,40.51
2018-07-28T10:02:30.307Z,41.02
2018-07-28T10:05:00.032Z,39.80
2018-07-28T10:07:28.669Z,40.07
2018-07-28T10:09:57.248Z,38.47
2018-07-28T10:12:25.829Z,39.50
2018-07-28T10:14:55.887Z,40.41
2018-07-28T10:17:25.134Z,39.73
2018-07-28T10:19:53.833Z,41.20
2018-07-28T10:22:22.349Z,40.29
2018-07-28T10:24:51.138Z,40.64
2018-07-28T10:27:19.782Z,41.02
2018-07-28T10:29:48.406Z,41.23
2018-07-28T10:32:16.929Z,40.55
2018-07-28T10:34:45.472Z,41.01
2018-07-28T10:37:13.990Z,40.27
2018-07-28T10:39:42.636Z,40.56
2018-07-28T10:42:11.218Z,40.31
2018-07-28T10:44:39.739Z,39.98
2018-07-28T10:47:09.101Z,39.81
2018-07-28T10:49:37.694Z,40.10
2018-07-28T10:52:06.803Z,39.12
2018-07-28T10:54:35.364Z,39.70
2018-07-28T10:57:03.943Z,40.08
2018-07-28T10:59:32.630Z,40.26
2018-07-28T11:02:01.973Z,39.50
2018-07-28T11:04:30.614Z,39.54
2018-07-28T11:06:59.300Z,38.89
2018-07-28T11:09:28.443Z,40.31
2018-07-28T11:11:57.079Z,40.08
2018-07-28T11:14:25.664Z,39.46
2018-07-28T11:16:54.190Z,39.33
2018-07-28T11:19:22.829Z,39.78
2018-07-28T11:21:51.456Z,39.29
2018-07-28T11:24:20.200Z,38.96
2018-07-28T11:26:48.885Z,40.13
2018-07-28T11:29:17.673Z,38.30
2018-07-28T11:31:57.670Z,38.50
2018-07-28T11:34:37.522Z,37.31
2018-07-28T11:39:22.858Z,37.53
2018-07-28T11:42:02.368Z,36.84
2018-07-28T11:44:42.146Z,36.42
2018-07-28T11:47:11.038Z,37.28
2018-07-28T11:49:39.663Z,36.51
2018-07-28T11:52:08.404Z,36.70
2018-07-28T11:54:37.098Z,36.24
2018-07-28T11:57:05.708Z,36.47
2018-07-28T11:59:35.279Z,35.30
2018-07-28T12:02:04.599Z,35.37
2018-07-28T12:04:33.265Z,35.59
2018-07-28T12:07:02.320Z,35.17
2018-07-28T12:09:31.699Z,36.25
2018-07-28T12:12:00.246Z,36.11
2018-07-28T12:14:28.787Z,35.64
2018-07-28T12:16:57.406Z,36.05
2018-07-28T12:19:25.985Z,35.82
2018-07-28T12:21:54.573Z,36.96
2018-07-28T12:24:23.258Z,36.80
2018-07-28T12:26:51.882Z,36.79
2018-07-28T12:29:20.406Z,37.21
2018-07-28T12:31:48.929Z,36.98
2018-07-28T12:34:17.590Z,37.95
2018-07-28T12:36:46.173Z,38.02
2018-07-28T12:39:14.713Z,39.38
2018-07-28T12:41:43.282Z,42.75
2018-07-28T12:44:12.006Z,44.83
2018-07-28T12:46:40.551Z,45.22
2018-07-28T12:49:09.141Z,46.24
2018-07-28T12:51:37.773Z,48.02
2018-07-28T12:54:06.395Z,47.36
2018-07-28T12:56:34.999Z,48.04
2018-07-28T12:59:03.775Z,48.35
2018-07-28T13:01:32.398Z,47.95
2018-07-28T13:04:00.961Z,47.16
2018-07-28T13:06:29.580Z,47.72
2018-07-28T13:08:58.279Z,47.21
2018-07-28T13:11:26.875Z,47.42
2018-07-28T13:13:55.531Z,47.73
2018-07-28T13:16:24.163Z,47.44
2018-07-28T13:18:52.730Z,48.19
2018-07-28T13:21:21.384Z,49.56
2018-07-28T13:23:50.078Z,52.27
2018-07-28T13:26:18.732Z,55.53
2018-07-28T13:28:47.335Z,58.21
2018-07-28T13:31:16.019Z,61.51
2018-07-28T13:33:44.618Z,64.75
2018-07-28T13:36:13.290Z,65.07
2018-07-28T13:38:42.486Z,66.79
2018-07-28T13:41:11.171Z,67.14
2018-07-28T13:43:39.804Z,67.27
2018-07-28T13:46:08.440Z,67.01
2018-07-28T13:48:37.476Z,65.74
2018-07-28T13:51:06.220Z,69.97
2018-07-28T13:53:36.083Z,67.39
2018-07-28T13:56:04.820Z,67.66
2018-07-28T13:58:33.505Z,67.94
2018-07-28T14:01:02.158Z,68.44
2018-07-28T14:03:30.876Z,68.96
2018-07-28T14:05:59.428Z,70.96
2018-07-28T14:08:27.988Z,69.01
2018-07-28T14:10:56.551Z,69.88
2018-07-28T14:13:25.207Z,69.06
2018-07-28T14:15:53.938Z,68.73
2018-07-28T14:18:22.671Z,67.09
2018-07-28T14:20:51.365Z,66.61
2018-07-28T14:23:20.162Z,65.97
2018-07-28T14:25:48.864Z,64.85
2018-07-28T14:28:17.432Z,65.76
2018-07-28T14:30:46.060Z,65.52
2018-07-28T14:33:16.778Z,62.50
2018-07-28T14:35:45.423Z,63.79
2018-07-28T14:38:14.023Z,62.37
2018-07-28T14:40:42.589Z,63.85
2018-07-28T14:43:11.172Z,64.08
2018-07-28T14:45:39.789Z,62.89
2018-07-28T14:48:09.246Z,63.48
2018-07-28T14:50:37.967Z,61.37
2018-07-28T14:53:07.155Z,59.93
2018-07-28T14:55:35.997Z,60.32
2018-07-28T14:58:04.723Z,57.94
2018-07-28T15:00:33.255Z,57.48
2018-07-28T15:03:02.499Z,57.51
2018-07-28T15:05:31.389Z,56.78
2018-07-28T15:08:00.004Z,56.64
2018-07-28T15:10:29.231Z,56.90
2018-07-28T15:12:57.912Z,56.99
2018-07-28T15:15:26.455Z,56.56
2018-07-28T15:17:55.281Z,58.39
2018-07-28T15:20:24.015Z,58.14
2018-07-28T15:22:52.522Z,57.99
2018-07-28T15:25:21.075Z,58.24
2018-07-28T15:27:49.647Z,58.06
2018-07-28T15:30:18.353Z,58.08
2018-07-28T15:32:46.987Z,58.36
2018-07-28T15:35:15.556Z,58.45
2018-07-28T15:37:44.550Z,59.00
2018-07-28T15:40:13.110Z,59.41
2018-07-28T15:42:41.772Z,60.00
2018-07-28T15:45:10.417Z,60.61
2018-07-28T15:47:39.040Z,60.61
2018-07-28T15:50:07.543Z,60.51
2018-07-28T15:52:36.308Z,61.18
2018-07-28T15:55:04.988Z,60.82
2018-07-28T15:57:33.786Z,60.69
2018-07-28T16:00:02.468Z,60.66
2018-07-28T16:02:30.970Z,60.41
2018-07-28T16:04:59.638Z,61.58
2018-07-28T16:07:28.643Z,61.07
2018-07-28T16:09:57.366Z,61.84
2018-07-28T16:12:25.948Z,61.64
2018-07-28T16:14:54.575Z,61.11
2018-07-28T16:17:23.774Z,61.67
2018-07-28T16:19:52.810Z,60.83
2018-07-28T16:22:21.453Z,62.18
2018-07-28T16:24:50.288Z,61.61
2018-07-28T16:27:18.932Z,62.31
2018-07-28T16:29:47.612Z,62.97
2018-07-28T16:32:19.126Z,63.01
2018-07-28T16:34:47.748Z,63.04
2018-07-28T16:37:16.863Z,63.80
2018-07-28T16:39:45.586Z,63.71
2018-07-28T16:42:14.166Z,63.90
2018-07-28T16:44:42.778Z,63.81
2018-07-28T16:47:11.752Z,64.36
2018-07-28T16:49:40.727Z,62.82
2018-07-28T16:52:09.322Z,63.15
2018-07-28T16:54:37.902Z,62.57
2018-07-28T16:57:06.424Z,62.56
2018-07-28T16:59:34.960Z,62.61
2018-07-28T17:02:03.693Z,62.89
2018-07-28T17:04:32.187Z,62.80
2018-07-28T17:07:00.980Z,62.39
2018-07-28T17:09:29.643Z,63.38
2018-07-28T17:11:58.241Z,63.11
2018-07-28T17:14:26.964Z,63.67
2018-07-28T17:16:55.579Z,63.50
2018-07-28T17:19:24.740Z,63.76
2018-07-28T17:21:53.381Z,63.01
2018-07-28T17:24:23.358Z,63.86
2018-07-28T17:26:51.958Z,63.21
2018-07-28T17:29:20.666Z,62.41
2018-07-28T17:31:49.305Z,62.70
2018-07-28T17:34:17.874Z,62.57
2018-07-28T17:36:46.517Z,61.10
2018-07-28T17:39:15.198Z,61.22
2018-07-28T17:41:44.226Z,61.03
2018-07-28T17:44:12.880Z,61.68
2018-07-28T17:46:41.570Z,61.30
2018-07-28T17:49:10.251Z,61.46
2018-07-28T17:51:38.938Z,61.58
2018-07-28T17:54:07.622Z,61.53
2018-07-28T17:56:36.174Z,61.52
2018-07-28T17:59:05.094Z,60.92
2018-07-28T18:01:33.677Z,61.86
2018-07-28T18:04:02.422Z,61.74
2018-07-28T18:06:31.781Z,62.06
2018-07-28T18:09:00.448Z,62.49
2018-07-28T18:11:29.135Z,62.88
2018-07-28T18:13:57.639Z,62.46
2018-07-28T18:16:26.243Z,62.40
2018-07-28T18:18:54.810Z,63.28
2018-07-28T18:21:23.422Z,62.36
2018-07-28T18:24:06.444Z,63.69
2018-07-28T18:26:35.077Z,63.45
2018-07-28T18:29:03.654Z,63.38
2018-07-28T18:31:32.678Z,63.52
2018-07-28T18:34:01.537Z,64.86
2018-07-28T18:36:30.196Z,63.63
2018-07-28T18:38:58.828Z,63.49
2018-07-28T18:41:27.495Z,63.99
2018-07-28T18:43:56.176Z,64.67
2018-07-28T18:46:24.719Z,64.31
2018-07-28T18:48:53.326Z,64.67
2018-07-28T18:51:21.867Z,65.30
2018-07-28T18:53:50.507Z,65.25
2018-07-28T18:56:19.089Z,64.62
2018-07-28T18:58:47.673Z,65.44
2018-07-28T19:01:16.256Z,65.27
2018-07-28T19:03:45.454Z,65.20
2018-07-28T19:06:14.139Z,65.39
2018-07-28T19:08:42.724Z,64.81
2018-07-28T19:11:11.409Z,65.16
2018-07-28T19:13:45.313Z,65.81
2018-07-28T19:16:13.914Z,65.78
2018-07-28T19:18:47.776Z,65.40
2018-07-28T19:21:16.490Z,66.24
2018-07-28T19:23:50.587Z,65.77
2018-07-28T19:26:19.293Z,65.63
2018-07-28T19:28:53.299Z,65.65
2018-07-28T19:31:21.839Z,66.42
2018-07-28T19:33:50.568Z,66.90
2018-07-28T19:36:24.320Z,66.67
2018-07-28T19:38:52.955Z,66.95
2018-07-28T19:41:21.641Z,66.55
2018-07-28T19:43:50.328Z,68.37
2018-07-28T19:46:18.952Z,67.63
2018-07-28T19:48:47.481Z,67.25
2018-07-28T19:51:16.177Z,67.69
2018-07-28T19:53:44.965Z,67.52
2018-07-28T19:56:13.753Z,67.64
2018-07-28T19:58:42.439Z,67.82
2018-07-28T20:01:10.942Z,68.84
2018-07-28T20:03:39.603Z,68.38
2018-07-28T20:06:08.289Z,68.66
2018-07-28T20:08:36.975Z,68.21
2018-07-28T20:11:05.661Z,69.57
2018-07-28T20:13:34.203Z,67.95
2018-07-28T20:16:02.767Z,68.60
2018-07-28T20:18:31.459Z,68.92
2018-07-28T20:21:00.160Z,68.87
2018-07-28T20:23:28.708Z,68.46
2018-07-28T20:25:57.306Z,69.33
2018-07-28T20:28:25.847Z,70.19
2018-07-28T20:30:54.426Z,69.99
2018-07-28T20:33:23.008Z,69.63
2018-07-28T20:35:51.855Z,68.93
2018-07-28T20:38:20.482Z,69.44
2018-07-28T20:40:49.120Z,69.24
2018-07-28T20:43:17.814Z,69.64
2018-07-28T20:45:46.439Z,69.49
2018-07-28T20:48:15.007Z,70.24
2018-07-28T20:50:43.601Z,69.70
2018-07-28T20:53:12.123Z,69.56
2018-07-28T20:55:40.767Z,71.50
2018-07-28T20:58:09.349Z,70.87
2018-07-28T21:00:37.934Z,70.84
2018-07-28T21:03:06.869Z,70.33
2018-07-28T21:05:35.634Z,70.77
2018-07-28T21:08:04.958Z,71.22
2018-07-28T21:10:33.538Z,70.50
2018-07-28T21:13:02.288Z,71.01
2018-07-28T21:15:30.867Z,70.37
2018-07-28T21:17:59.378Z,71.74
2018-07-28T21:20:28.002Z,70.82
2018-07-28T21:22:56.491Z,70.76
2018-07-28T21:25:25.005Z,71.33
2018-07-28T21:27:53.668Z,70.75
2018-07-28T21:30:22.259Z,72.12
2018-07-28T21:32:50.791Z,71.95
2018-07-28T21:35:19.416Z,71.52
2018-07-28T21:37:48.158Z,72.16
2018-07-28T21:40:16.898Z,71.82
2018-07-28T21:42:45.401Z,71.93
2018-07-28T21:45:13.995Z,73.28
2018-07-28T21:47:42.531Z,72.34
2018-07-28T21:50:11.092Z,71.93
2018-07-28T21:52:39.658Z,73.95
2018-07-28T21:55:08.295Z,73.31
2018-07-28T21:57:36.859Z,73.99
2018-07-28T22:00:07.763Z,73.35
2018-07-28T22:02:36.576Z,73.32
2018-07-28T22:05:05.311Z,73.66
2018-07-28T22:07:34.019Z,72.76
2018-07-28T22:10:02.635Z,74.35
2018-07-28T22:12:31.241Z,74.33
2018-07-28T22:14:59.823Z,73.57
2018-07-28T22:17:28.460Z,74.05
2018-07-28T22:19:57.002Z,74.50
2018-07-28T22:22:25.674Z,73.81
2018-07-28T22:24:54.359Z,74.85
2018-07-28T22:27:22.903Z,74.85
2018-07-28T22:29:51.526Z,74.93
2018-07-28T22:32:20.151Z,75.53
2018-07-28T22:34:48.919Z,74.83
2018-07-28T22:37:17.584Z,75.74
2018-07-28T22:39:46.315Z,75.08
2018-07-28T22:42:14.940Z,76.06
2018-07-28T22:44:43.474Z,74.97
2018-07-28T22:47:12.062Z,75.92
2018-07-28T22:49:40.587Z,75.50
2018-07-28T22:52:09.235Z,75.39
2018-07-28T22:54:38.499Z,75.71
2018-07-28T22:57:07.166Z,74.72
2018-07-28T22:59:35.851Z,76.81
2018-07-28T23:02:04.382Z,75.73
2018-07-28T23:04:32.943Z,76.07
2018-07-28T23:07:01.692Z,76.44
2018-07-28T23:09:30.229Z,76.29
2018-07-28T23:11:58.868Z,76.98
2018-07-28T23:14:27.399Z,76.56
2018-07-28T23:16:55.978Z,75.57
2018-07-28T23:19:24.551Z,75.37
2018-07-28T23:21:53.097Z,77.56
2018-07-28T23:24:21.582Z,76.02
2018-07-28T23:26:50.243Z,75.68
2018-07-28T23:29:18.883Z,77.51
2018-07-28T23:31:47.532Z,76.49
2018-07-28T23:34:16.147Z,75.98
2018-07-28T23:36:44.740Z,76.53
2018-07-28T23:39:13.285Z,76.25
2018-07-28T23:41:41.923Z,75.82
2018-07-28T23:44:10.549Z,75.65
2018-07-28T23:46:39.234Z,75.65
2018-07-28T23:49:07.817Z,76.74
2018-07-28T23:51:36.447Z,75.46
2018-07-28T23:54:05.085Z,75.98
2018-07-28T23:56:33.831Z,76.46
2018-07-28T23:59:02.567Z,75.73
